createdAt,value
2019-02-16T00:01:30.718Z,2.23
2019-02-16T00:04:00.147Z,2.40
2019-02-16T00:06:29.231Z,2.50
2019-02-16T00:08:58.812Z,2.70
2019-02-16T00:11:27.817Z,2.13
2019-02-16T00:13:56.643Z,2.20
2019-02-16T00:16:26.987Z,2.70
2019-02-16T00:18:56.299Z,2.33
2019-02-16T00:21:25.078Z,2.50
2019-02-16T00:23:54.036Z,2.00
2019-02-16T00:26:22.827Z,2.83
2019-02-16T00:28:51.696Z,2.03
2019-02-16T00:31:21.223Z,2.33
2019-02-16T00:33:50.647Z,2.40
2019-02-16T00:36:19.519Z,2.30
2019-02-16T00:38:48.618Z,2.43
2019-02-16T00:41:17.707Z,2.40
2019-02-16T00:43:46.519Z,1.97
2019-02-16T00:46:15.800Z,2.00
2019-02-16T00:48:44.895Z,2.00
2019-02-16T00:51:14.142Z,2.47
2019-02-16T00:53:43.695Z,2.10
2019-02-16T00:56:12.727Z,2.20
2019-02-16T00:58:41.599Z,2.20
2019-02-16T01:01:10.381Z,2.13
2019-02-16T01:03:39.192Z,2.40
2019-02-16T01:06:07.967Z,2.07
2019-02-16T01:08:36.775Z,2.40
2019-02-16T01:11:05.934Z,2.03
2019-02-16T01:13:34.733Z,1.97
2019-02-16T01:16:04.227Z,2.10
2019-02-16T01:18:33.172Z,1.67
2019-02-16T01:21:02.090Z,1.90
2019-02-16T01:23:31.447Z,1.90
2019-02-16T01:26:00.235Z,1.93
2019-02-16T01:28:29.029Z,1.80
2019-02-16T01:30:58.091Z,2.23
2019-02-16T01:33:27.183Z,2.47
2019-02-16T01:35:55.970Z,2.63
2019-02-16T01:38:24.855Z,2.40
2019-02-16T01:40:54.267Z,2.00
2019-02-16T01:43:23.068Z,1.83
2019-02-16T01:45:52.147Z,2.83
2019-02-16T01:48:21.247Z,3.27
2019-02-16T01:50:50.043Z,3.27
2019-02-16T01:53:18.838Z,2.53
2019-02-16T01:55:48.177Z,2.50
2019-02-16T01:58:17.342Z,2.80
2019-02-16T02:00:46.112Z,2.40
2019-02-16T02:03:14.893Z,2.33
2019-02-16T02:05:43.669Z,2.67
2019-02-16T02:08:12.893Z,2.80
2019-02-16T02:10:41.980Z,2.40
2019-02-16T02:13:11.590Z,2.20
2019-02-16T02:15:40.683Z,2.23
2019-02-16T02:18:09.786Z,2.07
2019-02-16T02:20:39.003Z,2.23
2019-02-16T02:23:07.790Z,2.30
2019-02-16T02:25:36.569Z,2.57
2019-02-16T02:28:05.439Z,2.23
2019-02-16T02:30:34.654Z,2.20
2019-02-16T02:33:03.743Z,1.80
2019-02-16T02:35:32.864Z,1.83
2019-02-16T02:38:01.939Z,1.63
2019-02-16T02:40:30.736Z,1.90
2019-02-16T02:42:59.827Z,2.00
2019-02-16T02:45:29.320Z,1.73
2019-02-16T02:47:58.463Z,1.90
2019-02-16T02:50:27.607Z,2.23
2019-02-16T02:52:56.751Z,2.33
2019-02-16T02:55:25.675Z,2.77
2019-02-16T02:57:55.378Z,3.57
2019-02-16T03:00:24.513Z,2.87
2019-02-16T03:02:53.298Z,2.20
2019-02-16T03:05:22.197Z,1.70
2019-02-16T03:07:51.007Z,2.10
2019-02-16T03:10:19.802Z,1.77
2019-02-16T03:12:48.600Z,1.90
2019-02-16T03:15:17.485Z,2.23
2019-02-16T03:17:46.648Z,2.20
2019-02-16T03:20:15.737Z,2.83
2019-02-16T03:23:12.664Z,3.17
2019-02-16T03:25:43.312Z,3.00
2019-02-16T03:28:31.774Z,3.07
2019-02-16T03:31:34.200Z,2.70
2019-02-16T03:34:08.748Z,2.70
2019-02-16T03:37:05.333Z,3.33
2019-02-16T03:39:38.424Z,2.77
2019-02-16T03:42:07.270Z,2.03
2019-02-16T03:44:36.079Z,2.47
2019-02-16T03:47:05.286Z,2.07
2019-02-16T03:49:34.326Z,2.30
2019-02-16T03:52:12.896Z,2.63
2019-02-16T03:54:33.994Z,2.73
2019-02-16T03:57:03.168Z,2.30
2019-02-16T03:59:32.360Z,2.20
2019-02-16T04:02:01.234Z,1.80
2019-02-16T04:04:30.187Z,2.00
2019-02-16T04:06:59.379Z,2.07
2019-02-16T04:09:28.254Z,1.73
2019-02-16T04:11:57.100Z,1.90
2019-02-16T04:14:26.555Z,1.77
2019-02-16T04:16:55.747Z,1.50
2019-02-16T04:19:24.658Z,1.63
2019-02-16T04:21:53.751Z,1.30
2019-02-16T04:24:22.832Z,1.30
2019-02-16T04:26:52.250Z,1.53
2019-02-16T04:29:21.047Z,1.20
2019-02-16T04:31:50.304Z,1.80
2019-02-16T04:34:19.098Z,1.37
2019-02-16T04:36:48.158Z,1.80
2019-02-16T04:39:17.420Z,2.10
2019-02-16T04:41:46.519Z,2.70
2019-02-16T04:44:15.647Z,2.90
2019-02-16T04:46:44.703Z,2.30
2019-02-16T04:49:13.571Z,2.97
2019-02-16T04:51:42.365Z,2.43
2019-02-16T04:54:11.667Z,1.87
2019-02-16T04:56:40.724Z,1.90
2019-02-16T04:59:09.779Z,1.77
2019-02-16T05:01:38.903Z,1.33
2019-02-16T05:04:07.710Z,1.60
2019-02-16T05:06:37.084Z,1.67
2019-02-16T05:09:07.191Z,1.50
2019-02-16T05:11:36.597Z,1.60
2019-02-16T05:14:05.690Z,1.23
2019-02-16T05:16:34.886Z,1.40
2019-02-16T05:19:03.983Z,1.20
2019-02-16T05:21:33.081Z,1.43
2019-02-16T05:24:01.932Z,1.53
2019-02-16T05:26:30.759Z,1.50
2019-02-16T05:28:59.545Z,2.07
2019-02-16T05:31:28.351Z,1.70
2019-02-16T05:33:57.154Z,2.20
2019-02-16T05:36:26.418Z,1.97
2019-02-16T05:38:55.524Z,3.30
2019-02-16T05:41:24.919Z,5.17
2019-02-16T05:43:54.012Z,3.70
2019-02-16T05:46:24.662Z,2.40
2019-02-16T05:48:54.150Z,3.60
2019-02-16T05:51:22.946Z,2.80
2019-02-16T05:53:52.031Z,2.10
2019-02-16T05:56:21.249Z,2.20
2019-02-16T05:58:50.320Z,2.07
2019-02-16T06:01:19.432Z,1.87
2019-02-16T06:03:48.318Z,1.90
2019-02-16T06:06:17.418Z,1.90
2019-02-16T06:08:46.545Z,1.90
2019-02-16T06:11:15.622Z,2.10
2019-02-16T06:13:44.700Z,2.10
2019-02-16T06:16:13.831Z,2.30
2019-02-16T06:18:42.890Z,2.33
2019-02-16T06:21:11.996Z,2.30
2019-02-16T06:23:40.893Z,1.93
2019-02-16T06:26:10.382Z,2.00
2019-02-16T06:28:39.492Z,2.23
2019-02-16T06:31:08.355Z,2.43
2019-02-16T06:33:37.622Z,2.33
2019-02-16T06:36:20.931Z,2.70
2019-02-16T06:38:49.945Z,2.57
2019-02-16T06:41:19.003Z,2.00
2019-02-16T06:43:48.219Z,2.80
2019-02-16T06:46:17.799Z,3.80
2019-02-16T06:48:46.991Z,7.73
2019-02-16T06:51:16.078Z,16.63
2019-02-16T06:53:44.924Z,4.73
2019-02-16T06:56:25.067Z,6.43
2019-02-16T06:58:53.893Z,7.57
2019-02-16T07:01:22.759Z,7.33
2019-02-16T07:03:51.557Z,5.00
2019-02-16T07:06:20.431Z,3.17
2019-02-16T07:08:50.116Z,3.10
2019-02-16T07:11:19.170Z,3.23
2019-02-16T07:13:48.214Z,3.10
2019-02-16T07:16:37.420Z,4.03
2019-02-16T07:19:14.064Z,6.03
2019-02-16T07:21:42.879Z,5.07
2019-02-16T07:24:12.432Z,4.63
2019-02-16T07:26:41.483Z,4.00
2019-02-16T07:29:10.674Z,3.70
2019-02-16T07:31:39.487Z,2.80
2019-02-16T07:34:08.344Z,2.23
2019-02-16T07:36:37.402Z,1.90
2019-02-16T07:41:40.319Z,1.83
2019-02-16T07:44:27.417Z,2.77
2019-02-16T07:47:01.348Z,2.93
2019-02-16T07:49:49.671Z,2.57
2019-02-16T07:52:33.822Z,2.17
2019-02-16T07:55:11.224Z,2.43
2019-02-16T07:57:51.863Z,2.63
2019-02-16T08:00:29.990Z,2.80
2019-02-16T08:03:04.531Z,3.00
2019-02-16T08:06:01.735Z,2.70
2019-02-16T08:08:43.241Z,2.60
2019-02-16T08:11:20.661Z,2.43
2019-02-16T08:14:14.642Z,4.07
2019-02-16T08:17:01.535Z,2.60
2019-02-16T08:19:43.040Z,4.47
2019-02-16T08:22:18.162Z,3.50
2019-02-16T08:25:12.650Z,4.57
2019-02-16T08:27:47.586Z,3.60
2019-02-16T08:30:34.195Z,2.70
2019-02-16T08:33:16.727Z,2.80
2019-02-16T08:36:11.063Z,3.60
2019-02-16T08:38:58.205Z,3.80
2019-02-16T08:41:49.242Z,3.40
2019-02-16T08:44:26.472Z,4.57
2019-02-16T08:47:04.674Z,5.93
2019-02-16T08:49:51.927Z,6.27
2019-02-16T08:52:36.247Z,6.43
2019-02-16T08:55:27.070Z,7.30
2019-02-16T08:58:13.930Z,7.17
2019-02-16T09:00:57.523Z,7.67
2019-02-16T09:03:44.535Z,9.83
2019-02-16T09:06:39.318Z,7.03
2019-02-16T09:09:21.428Z,3.97
2019-02-16T09:12:06.090Z,3.23
2019-02-16T09:14:46.342Z,3.80
2019-02-16T09:17:28.166Z,2.97
2019-02-16T09:20:21.511Z,3.70
2019-02-16T09:22:59.214Z,4.30
2019-02-16T09:26:05.365Z,4.03
2019-02-16T09:28:55.088Z,3.53
2019-02-16T09:31:41.467Z,3.30
2019-02-16T09:34:19.257Z,3.67
2019-02-16T09:37:06.800Z,4.47
2019-02-16T09:39:45.490Z,4.87
2019-02-16T09:42:49.518Z,4.30
2019-02-16T09:45:37.246Z,3.53
2019-02-16T09:48:15.363Z,3.53
2019-02-16T09:51:03.532Z,3.10
2019-02-16T09:53:39.163Z,2.80
2019-02-16T09:56:14.789Z,3.13
2019-02-16T09:58:52.882Z,3.63
2019-02-16T10:01:33.059Z,7.03
2019-02-16T10:04:22.095Z,5.10
2019-02-16T10:07:12.143Z,11.13
2019-02-16T10:09:48.471Z,5.27
2019-02-16T10:12:28.296Z,4.50
2019-02-16T10:15:19.350Z,4.67
2019-02-16T10:18:16.567Z,5.07
2019-02-16T10:21:09.863Z,6.43
2019-02-16T10:23:56.923Z,7.40
2019-02-16T10:26:35.582Z,6.43
2019-02-16T10:29:11.682Z,6.20
2019-02-16T10:32:08.984Z,7.57
2019-02-16T10:34:45.390Z,4.77
2019-02-16T10:37:32.053Z,4.67
2019-02-16T10:40:19.935Z,5.00
2019-02-16T10:43:20.559Z,5.00
2019-02-16T10:46:07.942Z,6.13
2019-02-16T10:48:46.787Z,7.17
2019-02-16T10:51:33.700Z,16.37
2019-02-16T10:54:26.975Z,6.20
2019-02-16T10:56:58.536Z,9.43
2019-02-16T10:59:50.058Z,6.73
2019-02-16T11:02:36.583Z,6.60
2019-02-16T11:05:27.470Z,5.27
2019-02-16T11:08:04.852Z,5.10
2019-02-16T11:10:53.022Z,4.43
2019-02-16T11:13:35.818Z,4.23
2019-02-16T11:16:19.058Z,6.00
2019-02-16T11:19:06.930Z,5.70
2019-02-16T11:21:48.880Z,8.63
2019-02-16T11:24:39.928Z,4.67
2019-02-16T11:27:15.230Z,3.63
2019-02-16T11:30:00.278Z,4.80
2019-02-16T11:32:48.455Z,4.03
2019-02-16T11:35:33.015Z,3.13
2019-02-16T11:38:07.980Z,3.17
2019-02-16T11:40:55.855Z,2.67
2019-02-16T11:43:42.412Z,3.50
2019-02-16T11:46:24.915Z,3.70
2019-02-16T11:49:16.348Z,10.67
2019-02-16T11:52:04.451Z,22.47
2019-02-16T11:54:45.945Z,5.83
2019-02-16T11:57:30.591Z,19.40
2019-02-16T12:00:18.466Z,3.23
2019-02-16T12:02:58.847Z,6.80
2019-02-16T12:06:02.149Z,18.33
2019-02-16T12:08:40.730Z,8.17
2019-02-16T12:11:31.613Z,2.20
2019-02-16T12:14:23.907Z,2.23
2019-02-16T12:17:12.151Z,2.40
2019-02-16T12:19:47.847Z,2.30
2019-02-16T12:22:41.735Z,2.47
2019-02-16T12:25:25.886Z,3.10
2019-02-16T12:28:16.619Z,2.77
2019-02-16T12:30:59.208Z,3.63
2019-02-16T12:33:37.307Z,2.30
2019-02-16T12:36:14.679Z,5.20
2019-02-16T12:39:04.782Z,2.97
2019-02-16T12:41:58.111Z,2.30
2019-02-16T12:44:37.267Z,2.47
2019-02-16T12:47:25.373Z,1.97
2019-02-16T12:50:13.268Z,2.30
2019-02-16T12:53:01.711Z,1.53
2019-02-16T12:55:41.559Z,1.93
2019-02-16T12:58:19.466Z,1.87
2019-02-16T13:00:56.291Z,2.20
2019-02-16T13:03:39.573Z,1.97
2019-02-16T13:06:21.612Z,1.77
2019-02-16T13:09:15.697Z,1.83
2019-02-16T13:12:02.573Z,1.40
2019-02-16T13:14:47.443Z,1.60
2019-02-16T13:17:25.738Z,1.70
2019-02-16T13:20:01.990Z,1.30
2019-02-16T13:22:36.933Z,2.10
2019-02-16T13:25:25.111Z,1.60
2019-02-16T13:28:11.251Z,2.77
2019-02-16T13:30:57.056Z,1.73
2019-02-16T13:33:37.264Z,2.23
2019-02-16T13:36:22.636Z,2.30
2019-02-16T13:39:19.790Z,2.50
2019-02-16T13:41:57.911Z,2.87
2019-02-16T13:44:38.719Z,3.20
2019-02-16T13:47:27.303Z,2.43
2019-02-16T13:50:13.671Z,2.00
2019-02-16T13:53:00.915Z,1.90
2019-02-16T13:55:55.095Z,2.00
2019-02-16T13:58:40.259Z,1.87
2019-02-16T14:01:46.648Z,2.00
2019-02-16T14:04:21.791Z,2.20
2019-02-16T14:07:01.709Z,2.10
2019-02-16T14:09:39.881Z,2.40
2019-02-16T14:12:30.545Z,2.20
2019-02-16T14:15:33.503Z,2.50
2019-02-16T14:18:02.727Z,3.40
2019-02-16T14:20:31.620Z,7.50
2019-02-16T14:23:00.703Z,4.23
2019-02-16T14:25:43.662Z,2.20
2019-02-16T14:28:08.855Z,2.07
2019-02-16T14:30:37.891Z,1.97
2019-02-16T14:33:07.032Z,1.70
2019-02-16T14:35:35.962Z,1.97
2019-02-16T14:38:12.989Z,1.93
2019-02-16T14:40:41.773Z,1.83
2019-02-16T14:43:11.202Z,1.63
2019-02-16T14:45:41.095Z,2.10
2019-02-16T14:48:09.984Z,2.00
2019-02-16T14:50:39.088Z,2.13
2019-02-16T14:53:08.226Z,8.57
2019-02-16T14:55:37.328Z,2.13
2019-02-16T14:58:06.690Z,1.67
2019-02-16T15:00:35.563Z,2.03
2019-02-16T15:03:04.339Z,1.93
2019-02-16T15:05:34.326Z,1.70
2019-02-16T15:08:03.639Z,2.17
2019-02-16T15:10:32.798Z,2.60
2019-02-16T15:13:02.006Z,2.00
2019-02-16T15:15:31.035Z,2.13
2019-02-16T15:18:00.379Z,2.23
2019-02-16T15:20:29.176Z,2.30
2019-02-16T15:22:59.127Z,1.93
2019-02-16T15:25:28.247Z,2.67
2019-02-16T15:27:57.035Z,2.23
2019-02-16T15:30:25.894Z,2.00
2019-02-16T15:32:55.260Z,2.40
2019-02-16T15:35:24.295Z,2.30
2019-02-16T15:37:53.598Z,3.10
2019-02-16T15:40:22.606Z,2.80
2019-02-16T15:42:51.505Z,2.70
2019-02-16T15:45:20.367Z,2.33
2019-02-16T15:47:49.740Z,2.20
2019-02-16T15:50:19.228Z,2.90
2019-02-16T15:52:48.414Z,3.73
2019-02-16T15:55:17.309Z,5.93
2019-02-16T15:57:46.983Z,4.93
2019-02-16T16:00:34.083Z,5.10
2019-02-16T16:03:03.776Z,5.63
2019-02-16T16:05:32.629Z,4.77
2019-02-16T16:08:21.774Z,4.33
2019-02-16T16:11:13.046Z,4.70
2019-02-16T16:14:00.937Z,5.43
2019-02-16T16:16:58.235Z,7.73
2019-02-16T16:19:45.357Z,8.77
2019-02-16T16:22:43.255Z,9.00
2019-02-16T16:25:34.445Z,10.30
2019-02-16T16:28:20.218Z,9.63
2019-02-16T16:31:26.371Z,7.97
2019-02-16T16:34:21.307Z,7.47
2019-02-16T16:37:15.193Z,8.90
2019-02-16T16:39:57.260Z,10.57
2019-02-16T16:43:04.418Z,10.97
2019-02-16T16:45:52.029Z,11.93
2019-02-16T16:48:49.135Z,9.37
2019-02-16T16:51:52.451Z,10.33
2019-02-16T16:54:36.431Z,5.87
2019-02-16T16:57:25.031Z,7.70
2019-02-16T17:00:13.507Z,6.43
2019-02-16T17:03:02.844Z,4.90
2019-02-16T17:05:51.442Z,4.37
2019-02-16T17:08:38.751Z,7.00
2019-02-16T17:11:26.067Z,7.40
2019-02-16T17:14:14.198Z,6.07
2019-02-16T17:16:53.542Z,5.60
2019-02-16T17:19:30.943Z,4.50
2019-02-16T17:22:17.791Z,4.17
2019-02-16T17:24:58.940Z,3.40
2019-02-16T17:27:49.853Z,3.30
2019-02-16T17:30:26.781Z,5.20
2019-02-16T17:33:14.234Z,4.40
2019-02-16T17:35:54.323Z,4.50
2019-02-16T17:38:45.394Z,3.77
2019-02-16T17:41:29.438Z,6.60
2019-02-16T17:44:16.634Z,8.40
2019-02-16T17:47:06.519Z,7.20
2019-02-16T17:49:51.508Z,7.40
2019-02-16T17:52:45.294Z,4.83
2019-02-16T17:55:24.032Z,3.80
2019-02-16T17:58:12.167Z,3.80
2019-02-16T18:00:58.823Z,3.60
2019-02-16T18:03:42.091Z,4.70
2019-02-16T18:06:28.838Z,22.73
2019-02-16T18:09:06.605Z,8.13
2019-02-16T18:11:53.142Z,9.57
2019-02-16T18:14:41.381Z,7.63
2019-02-16T18:17:28.668Z,5.03
2019-02-16T18:20:10.863Z,7.87
2019-02-16T18:22:57.395Z,15.83
2019-02-16T18:25:45.920Z,23.20
2019-02-16T18:28:26.058Z,17.23
2019-02-16T18:31:15.576Z,9.50
2019-02-16T18:34:03.292Z,4.70
2019-02-16T18:37:07.515Z,3.23
2019-02-16T18:39:48.786Z,3.10
2019-02-16T18:42:26.669Z,2.90
2019-02-16T18:45:13.948Z,3.53
2019-02-16T18:48:01.945Z,4.53
2019-02-16T18:50:56.358Z,4.93
2019-02-16T18:53:44.567Z,5.30
2019-02-16T18:56:42.169Z,4.07
2019-02-16T18:59:27.949Z,4.33
2019-02-16T19:02:05.449Z,4.70
2019-02-16T19:04:50.599Z,7.00
2019-02-16T19:07:44.543Z,8.77
2019-02-16T19:10:19.581Z,11.07
2019-02-16T19:13:16.404Z,10.37
2019-02-16T19:16:07.211Z,9.20
2019-02-16T19:18:57.451Z,9.30
2019-02-16T19:21:48.410Z,9.20
2019-02-16T19:24:35.387Z,10.00
2019-02-16T19:27:23.546Z,13.77
2019-02-16T19:30:17.886Z,11.90
2019-02-16T19:33:01.295Z,13.10
2019-02-16T19:35:48.576Z,10.70
2019-02-16T19:38:30.413Z,8.43
2019-02-16T19:41:08.779Z,7.80
2019-02-16T19:43:46.164Z,8.03
2019-02-16T19:46:23.364Z,5.63
2019-02-16T19:49:11.195Z,5.97
2019-02-16T19:51:57.753Z,4.77
2019-02-16T19:54:44.098Z,4.17
2019-02-16T19:57:36.016Z,4.13
2019-02-16T20:00:29.596Z,3.57
2019-02-16T20:03:16.572Z,4.03
2019-02-16T20:06:04.457Z,3.70
2019-02-16T20:08:53.563Z,3.30
2019-02-16T20:11:37.084Z,3.60
2019-02-16T20:14:16.407Z,3.83
2019-02-16T20:17:02.996Z,3.90
2019-02-16T20:19:43.346Z,4.07
2019-02-16T20:22:30.363Z,5.37
2019-02-16T20:25:21.686Z,5.20
2019-02-16T20:28:24.922Z,4.43
2019-02-16T20:31:08.170Z,5.50
2019-02-16T20:33:43.654Z,4.90
2019-02-16T20:36:27.606Z,5.60
2019-02-16T20:39:06.799Z,4.93
2019-02-16T20:41:41.982Z,4.80
2019-02-16T20:44:16.852Z,5.27
2019-02-16T20:47:10.894Z,4.80
2019-02-16T20:49:57.739Z,4.80
2019-02-16T20:52:43.159Z,4.30
2019-02-16T20:55:27.602Z,5.17
2019-02-16T20:58:14.462Z,22.30
2019-02-16T21:00:52.394Z,19.73
2019-02-16T21:03:43.623Z,11.27
2019-02-16T21:06:38.520Z,9.10
2019-02-16T21:09:14.383Z,4.60
2019-02-16T21:12:00.915Z,5.60
2019-02-16T21:14:45.531Z,5.43
2019-02-16T21:17:32.094Z,4.53
2019-02-16T21:20:27.543Z,4.23
2019-02-16T21:23:11.090Z,4.10
2019-02-16T21:25:54.311Z,3.60
2019-02-16T21:28:29.968Z,4.20
2019-02-16T21:31:30.115Z,4.00
2019-02-16T21:34:07.087Z,3.77
2019-02-16T21:37:10.095Z,3.90
2019-02-16T21:39:54.176Z,3.40
2019-02-16T21:42:48.111Z,3.70
2019-02-16T21:45:31.121Z,5.30
2019-02-16T21:48:14.657Z,5.47
2019-02-16T21:51:08.852Z,7.30
2019-02-16T21:53:44.179Z,6.83
2019-02-16T21:56:35.463Z,8.23
2019-02-16T21:59:26.222Z,18.53
2019-02-16T22:02:01.415Z,16.03
2019-02-16T22:04:52.655Z,10.97
2019-02-16T22:07:42.515Z,8.00
2019-02-16T22:10:33.547Z,7.13
2019-02-16T22:13:08.751Z,9.40
2019-02-16T22:15:37.602Z,5.50
2019-02-16T22:18:06.848Z,8.13
2019-02-16T22:20:35.706Z,6.53
2019-02-16T22:23:05.179Z,5.97
2019-02-16T22:25:34.275Z,5.60
2019-02-16T22:28:03.373Z,5.30
2019-02-16T22:30:32.672Z,5.43
2019-02-16T22:33:01.462Z,4.70
2019-02-16T22:35:30.353Z,5.20
2019-02-16T22:37:59.139Z,4.83
2019-02-16T22:40:28.539Z,5.00
2019-02-16T22:42:57.331Z,5.37
2019-02-16T22:45:26.524Z,5.37
2019-02-16T22:47:55.726Z,5.33
2019-02-16T22:50:24.889Z,6.43
2019-02-16T22:52:54.015Z,7.63
2019-02-16T22:55:23.215Z,6.80
2019-02-16T22:57:52.015Z,6.37
2019-02-16T23:00:43.483Z,7.10
2019-02-16T23:03:13.395Z,6.40
2019-02-16T23:05:42.574Z,7.20
2019-02-16T23:08:11.460Z,6.67
2019-02-16T23:10:40.407Z,6.57
2019-02-16T23:13:09.350Z,6.90
2019-02-16T23:15:38.611Z,8.30
2019-02-16T23:18:07.398Z,14.70
2019-02-16T23:20:36.359Z,9.23
2019-02-16T23:23:05.332Z,9.60
2019-02-16T23:25:34.218Z,8.60
2019-02-16T23:28:03.190Z,7.13
2019-02-16T23:30:32.406Z,6.23
2019-02-16T23:33:01.668Z,5.40
2019-02-16T23:35:31.093Z,4.63
2019-02-16T23:38:00.483Z,3.57
2019-02-16T23:40:29.708Z,4.10
2019-02-16T23:42:58.599Z,5.20
2019-02-16T23:45:27.899Z,4.97
2019-02-16T23:47:56.765Z,4.37
2019-02-16T23:50:25.858Z,3.77
2019-02-16T23:52:54.692Z,3.90
2019-02-16T23:55:23.563Z,3.83
2019-02-16T23:57:52.712Z,3.90
